sensor_id;sensor_type;location;lat;lon;timestamp;temperature;humidity
47590;DHT22;33316;52.298;9.056;2023-02-01T00:00:18;5.60;88.60
47590;DHT22;33316;52.298;9.056;2023-02-01T00:02:46;5.60;88.70
47590;DHT22;33316;52.298;9.056;2023-02-01T00:05:13;5.60;88.70
47590;DHT22;33316;52.298;9.056;2023-02-01T00:07:47;5.60;88.70
47590;DHT22;33316;52.298;9.056;2023-02-01T00:10:14;5.60;88.80
47590;DHT22;33316;52.298;9.056;2023-02-01T00:12:41;5.60;88.80
47590;DHT22;33316;52.298;9.056;2023-02-01T00:15:08;5.60;88.80
47590;DHT22;33316;52.298;9.056;2023-02-01T00:17:35;5.50;89.60
47590;DHT22;33316;52.298;9.056;2023-02-01T00:20:04;5.50;88.80
47590;DHT22;33316;52.298;9.056;2023-02-01T00:22:31;5.50;88.80
47590;DHT22;33316;52.298;9.056;2023-02-01T00:24:57;5.50;88.80
47590;DHT22;33316;52.298;9.056;2023-02-01T00:27:24;5.50;88.90
47590;DHT22;33316;52.298;9.056;2023-02-01T00:29:51;5.50;88.90
47590;DHT22;33316;52.298;9.056;2023-02-01T00:32:17;5.50;88.90
47590;DHT22;33316;52.298;9.056;2023-02-01T00:34:44;5.50;88.90
47590;DHT22;33316;52.298;9.056;2023-02-01T00:37:12;5.50;88.90
47590;DHT22;33316;52.298;9.056;2023-02-01T00:39:39;5.50;88.90
47590;DHT22;33316;52.298;9.056;2023-02-01T00:42:05;5.50;88.90
47590;DHT22;33316;52.298;9.056;2023-02-01T00:44:32;5.50;88.90
47590;DHT22;33316;52.298;9.056;2023-02-01T00:47:01;5.50;88.90
47590;DHT22;33316;52.298;9.056;2023-02-01T00:49:27;5.50;88.90
47590;DHT22;33316;52.298;9.056;2023-02-01T00:51:55;5.40;88.90
47590;DHT22;33316;52.298;9.056;2023-02-01T00:54:23;5.50;88.90
47590;DHT22;33316;52.298;9.056;2023-02-01T00:56:50;5.40;88.90
47590;DHT22;33316;52.298;9.056;2023-02-01T00:59:16;5.50;89.00
47590;DHT22;33316;52.298;9.056;2023-02-01T01:01:43;5.50;89.00
47590;DHT22;33316;52.298;9.056;2023-02-01T01:04:10;5.40;88.90
47590;DHT22;33316;52.298;9.056;2023-02-01T01:06:36;5.40;88.90
47590;DHT22;33316;52.298;9.056;2023-02-01T01:09:05;5.40;88.90
47590;DHT22;33316;52.298;9.056;2023-02-01T01:11:35;5.40;89.00
47590;DHT22;33316;52.298;9.056;2023-02-01T01:14:04;5.40;89.00
47590;DHT22;33316;52.298;9.056;2023-02-01T01:16:31;5.50;89.10
47590;DHT22;33316;52.298;9.056;2023-02-01T01:18:58;5.40;89.00
47590;DHT22;33316;52.298;9.056;2023-02-01T01:21:25;5.40;89.00
47590;DHT22;33316;52.298;9.056;2023-02-01T01:23:53;5.40;89.00
47590;DHT22;33316;52.298;9.056;2023-02-01T01:26:21;5.40;89.00
47590;DHT22;33316;52.298;9.056;2023-02-01T01:28:50;5.40;89.10
47590;DHT22;33316;52.298;9.056;2023-02-01T01:31:18;5.40;89.10
47590;DHT22;33316;52.298;9.056;2023-02-01T01:33:48;5.40;89.10
47590;DHT22;33316;52.298;9.056;2023-02-01T01:36:15;5.40;89.10
47590;DHT22;33316;52.298;9.056;2023-02-01T01:38:42;5.40;89.00
47590;DHT22;33316;52.298;9.056;2023-02-01T01:41:14;5.40;89.00
47590;DHT22;33316;52.298;9.056;2023-02-01T01:43:48;5.50;89.10
47590;DHT22;33316;52.298;9.056;2023-02-01T01:46:21;5.50;89.10
47590;DHT22;33316;52.298;9.056;2023-02-01T01:48:50;5.50;89.10
47590;DHT22;33316;52.298;9.056;2023-02-01T01:51:20;5.50;89.20
47590;DHT22;33316;52.298;9.056;2023-02-01T01:53:56;5.50;89.10
47590;DHT22;33316;52.298;9.056;2023-02-01T01:56:25;5.50;89.10
47590;DHT22;33316;52.298;9.056;2023-02-01T01:58:53;5.50;89.20
47590;DHT22;33316;52.298;9.056;2023-02-01T02:01:21;5.50;89.20
47590;DHT22;33316;52.298;9.056;2023-02-01T02:03:49;5.40;89.10
47590;DHT22;33316;52.298;9.056;2023-02-01T02:06:25;5.50;89.20
47590;DHT22;33316;52.298;9.056;2023-02-01T02:08:53;5.50;89.20
47590;DHT22;33316;52.298;9.056;2023-02-01T02:11:20;5.50;89.20
47590;DHT22;33316;52.298;9.056;2023-02-01T02:13:50;5.50;89.20
47590;DHT22;33316;52.298;9.056;2023-02-01T02:16:52;5.50;89.20
47590;DHT22;33316;52.298;9.056;2023-02-01T02:22:46;5.50;89.10
47590;DHT22;33316;52.298;9.056;2023-02-01T02:25:38;5.50;89.00
47590;DHT22;33316;52.298;9.056;2023-02-01T02:28:22;5.50;89.00
47590;DHT22;33316;52.298;9.056;2023-02-01T02:33:52;5.50;89.70
47590;DHT22;33316;52.298;9.056;2023-02-01T02:36:31;5.50;89.00
47590;DHT22;33316;52.298;9.056;2023-02-01T02:39:07;5.50;89.00
47590;DHT22;33316;52.298;9.056;2023-02-01T02:41:41;5.60;89.00
47590;DHT22;33316;52.298;9.056;2023-02-01T02:44:33;5.50;89.00
47590;DHT22;33316;52.298;9.056;2023-02-01T02:47:26;5.50;89.00
47590;DHT22;33316;52.298;9.056;2023-02-01T02:50:09;5.60;89.10
47590;DHT22;33316;52.298;9.056;2023-02-01T02:52:59;5.60;89.10
47590;DHT22;33316;52.298;9.056;2023-02-01T02:55:45;5.50;89.00
47590;DHT22;33316;52.298;9.056;2023-02-01T02:58:13;5.50;89.00
47590;DHT22;33316;52.298;9.056;2023-02-01T03:00:57;5.50;89.00
47590;DHT22;33316;52.298;9.056;2023-02-01T03:03:42;5.60;89.10
47590;DHT22;33316;52.298;9.056;2023-02-01T03:06:36;5.60;89.10
47590;DHT22;33316;52.298;9.056;2023-02-01T03:09:06;5.60;89.00
47590;DHT22;33316;52.298;9.056;2023-02-01T03:11:36;5.60;89.00
47590;DHT22;33316;52.298;9.056;2023-02-01T03:14:23;5.60;89.00
47590;DHT22;33316;52.298;9.056;2023-02-01T03:16:57;5.60;89.00
47590;DHT22;33316;52.298;9.056;2023-02-01T03:19:30;5.60;89.00
47590;DHT22;33316;52.298;9.056;2023-02-01T03:22:03;5.60;89.00
47590;DHT22;33316;52.298;9.056;2023-02-01T03:24:33;5.70;89.20
47590;DHT22;33316;52.298;9.056;2023-02-01T03:27:05;5.60;89.20
47590;DHT22;33316;52.298;9.056;2023-02-01T03:29:38;5.70;89.20
47590;DHT22;33316;52.298;9.056;2023-02-01T03:32:07;5.70;89.20
47590;DHT22;33316;52.298;9.056;2023-02-01T03:34:35;5.70;89.30
47590;DHT22;33316;52.298;9.056;2023-02-01T03:37:06;5.70;89.30
47590;DHT22;33316;52.298;9.056;2023-02-01T03:39:38;5.70;89.40
47590;DHT22;33316;52.298;9.056;2023-02-01T03:42:10;5.70;89.60
47590;DHT22;33316;52.298;9.056;2023-02-01T03:44:45;5.70;89.60
47590;DHT22;33316;52.298;9.056;2023-02-01T03:47:16;5.80;89.80
47590;DHT22;33316;52.298;9.056;2023-02-01T03:49:46;5.70;89.80
47590;DHT22;33316;52.298;9.056;2023-02-01T03:52:20;5.80;90.00
47590;DHT22;33316;52.298;9.056;2023-02-01T03:54:48;5.80;90.00
47590;DHT22;33316;52.298;9.056;2023-02-01T03:57:20;5.80;90.00
47590;DHT22;33316;52.298;9.056;2023-02-01T03:59:48;5.80;90.00
47590;DHT22;33316;52.298;9.056;2023-02-01T04:02:16;5.70;90.00
47590;DHT22;33316;52.298;9.056;2023-02-01T04:04:45;5.80;90.00
47590;DHT22;33316;52.298;9.056;2023-02-01T04:07:12;5.70;90.00
47590;DHT22;33316;52.298;9.056;2023-02-01T04:09:40;5.80;90.00
47590;DHT22;33316;52.298;9.056;2023-02-01T04:12:07;5.80;90.00
47590;DHT22;33316;52.298;9.056;2023-02-01T04:14:34;5.80;90.00
47590;DHT22;33316;52.298;9.056;2023-02-01T04:17:00;5.80;89.90
47590;DHT22;33316;52.298;9.056;2023-02-01T04:19:27;5.80;89.90
47590;DHT22;33316;52.298;9.056;2023-02-01T04:21:54;5.80;89.90
47590;DHT22;33316;52.298;9.056;2023-02-01T04:24:21;5.80;89.80
47590;DHT22;33316;52.298;9.056;2023-02-01T04:26:49;5.80;89.80
47590;DHT22;33316;52.298;9.056;2023-02-01T04:29:15;5.80;89.90
47590;DHT22;33316;52.298;9.056;2023-02-01T04:31:42;5.80;89.90
47590;DHT22;33316;52.298;9.056;2023-02-01T04:34:09;5.80;90.00
47590;DHT22;33316;52.298;9.056;2023-02-01T04:36:35;5.80;90.00
47590;DHT22;33316;52.298;9.056;2023-02-01T04:39:02;5.80;90.00
47590;DHT22;33316;52.298;9.056;2023-02-01T04:41:29;5.80;90.00
47590;DHT22;33316;52.298;9.056;2023-02-01T04:43:57;5.80;90.00
47590;DHT22;33316;52.298;9.056;2023-02-01T04:46:24;5.80;90.00
47590;DHT22;33316;52.298;9.056;2023-02-01T04:48:51;5.80;90.00
47590;DHT22;33316;52.298;9.056;2023-02-01T04:51:17;5.90;90.00
47590;DHT22;33316;52.298;9.056;2023-02-01T04:53:44;5.90;90.00
47590;DHT22;33316;52.298;9.056;2023-02-01T04:56:11;5.90;90.00
47590;DHT22;33316;52.298;9.056;2023-02-01T04:58:38;5.90;90.00
47590;DHT22;33316;52.298;9.056;2023-02-01T05:01:07;5.90;90.00
47590;DHT22;33316;52.298;9.056;2023-02-01T05:03:34;5.90;90.00
47590;DHT22;33316;52.298;9.056;2023-02-01T05:06:01;5.90;90.10
47590;DHT22;33316;52.298;9.056;2023-02-01T05:08:29;5.90;90.10
47590;DHT22;33316;52.298;9.056;2023-02-01T05:10:56;5.90;90.10
47590;DHT22;33316;52.298;9.056;2023-02-01T05:13:24;5.90;90.10
47590;DHT22;33316;52.298;9.056;2023-02-01T05:16:10;5.90;90.10
47590;DHT22;33316;52.298;9.056;2023-02-01T05:18:36;5.90;90.10
47590;DHT22;33316;52.298;9.056;2023-02-01T05:21:03;5.90;90.10
47590;DHT22;33316;52.298;9.056;2023-02-01T05:23:30;5.90;90.10
47590;DHT22;33316;52.298;9.056;2023-02-01T05:26:00;5.90;90.10
47590;DHT22;33316;52.298;9.056;2023-02-01T05:28:27;5.90;90.10
47590;DHT22;33316;52.298;9.056;2023-02-01T05:30:54;5.90;90.10
47590;DHT22;33316;52.298;9.056;2023-02-01T05:33:22;5.90;90.20
47590;DHT22;33316;52.298;9.056;2023-02-01T05:35:49;5.90;90.10
47590;DHT22;33316;52.298;9.056;2023-02-01T05:38:16;5.90;90.10
47590;DHT22;33316;52.298;9.056;2023-02-01T05:40:43;5.90;90.10
47590;DHT22;33316;52.298;9.056;2023-02-01T05:43:14;5.90;90.10
47590;DHT22;33316;52.298;9.056;2023-02-01T05:45:41;5.90;90.10
47590;DHT22;33316;52.298;9.056;2023-02-01T05:48:08;5.90;90.20
47590;DHT22;33316;52.298;9.056;2023-02-01T05:50:36;5.90;90.20
47590;DHT22;33316;52.298;9.056;2023-02-01T05:53:02;5.90;90.20
47590;DHT22;33316;52.298;9.056;2023-02-01T05:55:29;5.90;90.30
47590;DHT22;33316;52.298;9.056;2023-02-01T05:57:56;5.90;90.30
47590;DHT22;33316;52.298;9.056;2023-02-01T06:00:23;5.90;90.30
47590;DHT22;33316;52.298;9.056;2023-02-01T06:02:50;5.90;90.40
47590;DHT22;33316;52.298;9.056;2023-02-01T06:05:17;5.90;90.40
47590;DHT22;33316;52.298;9.056;2023-02-01T06:07:45;6.00;90.50
47590;DHT22;33316;52.298;9.056;2023-02-01T06:10:12;6.00;90.50
47590;DHT22;33316;52.298;9.056;2023-02-01T06:12:39;5.90;90.50
47590;DHT22;33316;52.298;9.056;2023-02-01T06:15:06;5.90;90.60
47590;DHT22;33316;52.298;9.056;2023-02-01T06:17:33;5.90;90.60
47590;DHT22;33316;52.298;9.056;2023-02-01T06:20:00;5.90;90.70
47590;DHT22;33316;52.298;9.056;2023-02-01T06:22:27;5.90;90.70
47590;DHT22;33316;52.298;9.056;2023-02-01T06:24:55;5.90;90.70
47590;DHT22;33316;52.298;9.056;2023-02-01T06:27:23;5.90;90.70
47590;DHT22;33316;52.298;9.056;2023-02-01T06:29:50;5.90;90.80
47590;DHT22;33316;52.298;9.056;2023-02-01T06:32:17;5.90;90.80
47590;DHT22;33316;52.298;9.056;2023-02-01T06:34:44;5.90;90.80
47590;DHT22;33316;52.298;9.056;2023-02-01T06:37:10;5.90;90.90
47590;DHT22;33316;52.298;9.056;2023-02-01T06:39:37;5.90;90.90
47590;DHT22;33316;52.298;9.056;2023-02-01T06:42:06;5.90;90.90
47590;DHT22;33316;52.298;9.056;2023-02-01T06:44:32;5.90;91.00
47590;DHT22;33316;52.298;9.056;2023-02-01T06:46:59;5.90;91.10
47590;DHT22;33316;52.298;9.056;2023-02-01T06:49:26;5.90;91.10
47590;DHT22;33316;52.298;9.056;2023-02-01T06:51:52;5.90;91.20
47590;DHT22;33316;52.298;9.056;2023-02-01T06:54:19;5.90;91.30
47590;DHT22;33316;52.298;9.056;2023-02-01T06:56:46;5.90;91.30
47590;DHT22;33316;52.298;9.056;2023-02-01T06:59:14;5.90;91.30
47590;DHT22;33316;52.298;9.056;2023-02-01T07:01:41;5.90;91.30
47590;DHT22;33316;52.298;9.056;2023-02-01T07:04:10;6.00;91.30
47590;DHT22;33316;52.298;9.056;2023-02-01T07:06:36;5.90;91.30
47590;DHT22;33316;52.298;9.056;2023-02-01T07:09:03;6.00;91.30
47590;DHT22;33316;52.298;9.056;2023-02-01T07:11:30;6.00;91.20
47590;DHT22;33316;52.298;9.056;2023-02-01T07:13:57;6.00;91.20
47590;DHT22;33316;52.298;9.056;2023-02-01T07:16:25;6.00;91.20
47590;DHT22;33316;52.298;9.056;2023-02-01T07:18:52;6.00;91.10
47590;DHT22;33316;52.298;9.056;2023-02-01T07:21:19;6.00;91.10
47590;DHT22;33316;52.298;9.056;2023-02-01T07:23:46;6.00;91.00
47590;DHT22;33316;52.298;9.056;2023-02-01T07:26:14;6.00;91.00
47590;DHT22;33316;52.298;9.056;2023-02-01T07:28:42;6.10;91.00
47590;DHT22;33316;52.298;9.056;2023-02-01T07:31:11;6.10;91.00
47590;DHT22;33316;52.298;9.056;2023-02-01T07:33:40;6.00;90.90
47590;DHT22;33316;52.298;9.056;2023-02-01T07:36:10;6.10;90.90
47590;DHT22;33316;52.298;9.056;2023-02-01T07:38:37;6.10;90.80
47590;DHT22;33316;52.298;9.056;2023-02-01T07:41:05;6.10;90.80
47590;DHT22;33316;52.298;9.056;2023-02-01T07:43:33;6.10;90.80
47590;DHT22;33316;52.298;9.056;2023-02-01T07:46:02;6.10;90.70
47590;DHT22;33316;52.298;9.056;2023-02-01T07:48:30;6.10;90.70
47590;DHT22;33316;52.298;9.056;2023-02-01T07:50:59;6.10;90.60
47590;DHT22;33316;52.298;9.056;2023-02-01T07:53:26;6.10;90.60
47590;DHT22;33316;52.298;9.056;2023-02-01T07:55:53;6.10;90.60
47590;DHT22;33316;52.298;9.056;2023-02-01T07:58:21;6.20;90.50
47590;DHT22;33316;52.298;9.056;2023-02-01T08:00:48;6.20;90.50
47590;DHT22;33316;52.298;9.056;2023-02-01T08:03:32;6.20;90.40
47590;DHT22;33316;52.298;9.056;2023-02-01T08:06:00;6.20;90.40
47590;DHT22;33316;52.298;9.056;2023-02-01T08:08:27;6.20;90.30
47590;DHT22;33316;52.298;9.056;2023-02-01T08:10:57;6.20;90.20
47590;DHT22;33316;52.298;9.056;2023-02-01T08:13:24;6.30;90.20
47590;DHT22;33316;52.298;9.056;2023-02-01T08:15:51;6.30;90.20
47590;DHT22;33316;52.298;9.056;2023-02-01T08:18:17;6.30;90.20
47590;DHT22;33316;52.298;9.056;2023-02-01T08:20:44;6.30;90.20
47590;DHT22;33316;52.298;9.056;2023-02-01T08:23:14;6.30;90.20
47590;DHT22;33316;52.298;9.056;2023-02-01T08:25:41;6.40;90.20
47590;DHT22;33316;52.298;9.056;2023-02-01T08:28:07;6.30;90.10
47590;DHT22;33316;52.298;9.056;2023-02-01T08:30:36;6.30;90.00
47590;DHT22;33316;52.298;9.056;2023-02-01T08:33:03;6.40;90.00
47590;DHT22;33316;52.298;9.056;2023-02-01T08:35:31;6.40;90.20
47590;DHT22;33316;52.298;9.056;2023-02-01T08:37:58;6.40;89.70
47590;DHT22;33316;52.298;9.056;2023-02-01T08:40:26;6.50;89.80
47590;DHT22;33316;52.298;9.056;2023-02-01T08:42:53;6.50;89.60
47590;DHT22;33316;52.298;9.056;2023-02-01T08:45:22;6.50;89.50
47590;DHT22;33316;52.298;9.056;2023-02-01T08:47:50;6.60;89.50
47590;DHT22;33316;52.298;9.056;2023-02-01T08:50:17;6.50;89.60
47590;DHT22;33316;52.298;9.056;2023-02-01T08:52:45;6.60;89.90
47590;DHT22;33316;52.298;9.056;2023-02-01T08:55:13;6.60;90.00
47590;DHT22;33316;52.298;9.056;2023-02-01T08:57:41;6.60;90.00
47590;DHT22;33316;52.298;9.056;2023-02-01T09:00:11;6.60;90.00
47590;DHT22;33316;52.298;9.056;2023-02-01T09:02:39;6.60;90.00
47590;DHT22;33316;52.298;9.056;2023-02-01T09:05:06;6.60;90.00
47590;DHT22;33316;52.298;9.056;2023-02-01T09:07:34;6.70;90.00
47590;DHT22;33316;52.298;9.056;2023-02-01T09:10:01;6.70;90.00
47590;DHT22;33316;52.298;9.056;2023-02-01T09:12:28;6.70;89.90
47590;DHT22;33316;52.298;9.056;2023-02-01T09:14:56;6.70;89.80
47590;DHT22;33316;52.298;9.056;2023-02-01T09:17:24;6.70;89.70
47590;DHT22;33316;52.298;9.056;2023-02-01T09:19:51;6.80;89.70
47590;DHT22;33316;52.298;9.056;2023-02-01T09:22:18;6.80;89.50
47590;DHT22;33316;52.298;9.056;2023-02-01T09:24:45;6.80;89.40
47590;DHT22;33316;52.298;9.056;2023-02-01T09:27:11;6.80;89.20
47590;DHT22;33316;52.298;9.056;2023-02-01T09:29:38;6.80;89.20
47590;DHT22;33316;52.298;9.056;2023-02-01T09:32:06;6.80;89.10
47590;DHT22;33316;52.298;9.056;2023-02-01T09:34:34;6.90;89.10
47590;DHT22;33316;52.298;9.056;2023-02-01T09:37:00;6.90;88.90
47590;DHT22;33316;52.298;9.056;2023-02-01T09:39:27;6.90;88.90
47590;DHT22;33316;52.298;9.056;2023-02-01T09:42:02;6.90;88.80
47590;DHT22;33316;52.298;9.056;2023-02-01T09:44:42;6.90;88.80
47590;DHT22;33316;52.298;9.056;2023-02-01T09:47:16;7.00;88.70
47590;DHT22;33316;52.298;9.056;2023-02-01T09:49:49;7.00;88.80
47590;DHT22;33316;52.298;9.056;2023-02-01T09:52:22;7.00;89.40
47590;DHT22;33316;52.298;9.056;2023-02-01T09:54:54;7.00;88.50
47590;DHT22;33316;52.298;9.056;2023-02-01T09:57:30;7.10;88.50
47590;DHT22;33316;52.298;9.056;2023-02-01T10:00:03;7.10;88.50
47590;DHT22;33316;52.298;9.056;2023-02-01T10:02:34;7.10;88.50
47590;DHT22;33316;52.298;9.056;2023-02-01T10:05:04;7.10;89.20
47590;DHT22;33316;52.298;9.056;2023-02-01T10:07:36;7.20;88.30
47590;DHT22;33316;52.298;9.056;2023-02-01T10:10:11;7.20;88.80
47590;DHT22;33316;52.298;9.056;2023-02-01T10:12:57;7.20;87.90
47590;DHT22;33316;52.298;9.056;2023-02-01T10:15:48;7.20;87.80
47590;DHT22;33316;52.298;9.056;2023-02-01T10:18:34;7.30;87.80
47590;DHT22;33316;52.298;9.056;2023-02-01T10:21:10;7.30;87.70
47590;DHT22;33316;52.298;9.056;2023-02-01T10:23:54;7.30;87.60
47590;DHT22;33316;52.298;9.056;2023-02-01T10:26:27;7.30;87.20
47590;DHT22;33316;52.298;9.056;2023-02-01T10:28:58;7.30;87.40
47590;DHT22;33316;52.298;9.056;2023-02-01T10:31:29;7.30;87.30
47590;DHT22;33316;52.298;9.056;2023-02-01T10:33:59;7.20;88.00
47590;DHT22;33316;52.298;9.056;2023-02-01T10:36:30;7.20;87.10
47590;DHT22;33316;52.298;9.056;2023-02-01T10:38:58;7.20;87.10
47590;DHT22;33316;52.298;9.056;2023-02-01T10:41:30;7.20;86.80
47590;DHT22;33316;52.298;9.056;2023-02-01T10:43:58;7.30;86.80
47590;DHT22;33316;52.298;9.056;2023-02-01T10:46:26;7.30;86.60
47590;DHT22;33316;52.298;9.056;2023-02-01T10:48:58;7.30;86.60
47590;DHT22;33316;52.298;9.056;2023-02-01T10:51:30;7.30;86.60
47590;DHT22;33316;52.298;9.056;2023-02-01T10:54:00;7.30;86.50
47590;DHT22;33316;52.298;9.056;2023-02-01T10:56:28;7.30;86.60
47590;DHT22;33316;52.298;9.056;2023-02-01T10:59:04;7.30;86.60
47590;DHT22;33316;52.298;9.056;2023-02-01T11:01:34;7.30;86.40
47590;DHT22;33316;52.298;9.056;2023-02-01T11:04:04;7.30;86.50
47590;DHT22;33316;52.298;9.056;2023-02-01T11:06:36;7.30;86.50
47590;DHT22;33316;52.298;9.056;2023-02-01T11:09:11;7.30;86.50
47590;DHT22;33316;52.298;9.056;2023-02-01T11:11:54;7.30;86.40
47590;DHT22;33316;52.298;9.056;2023-02-01T11:14:27;7.30;86.40
47590;DHT22;33316;52.298;9.056;2023-02-01T11:16:56;7.30;86.40
47590;DHT22;33316;52.298;9.056;2023-02-01T11:19:25;7.30;86.50
47590;DHT22;33316;52.298;9.056;2023-02-01T11:21:53;7.30;86.40
47590;DHT22;33316;52.298;9.056;2023-02-01T11:24:23;7.30;86.40
47590;DHT22;33316;52.298;9.056;2023-02-01T11:26:53;7.30;87.10
47590;DHT22;33316;52.298;9.056;2023-02-01T11:29:21;7.30;86.40
47590;DHT22;33316;52.298;9.056;2023-02-01T11:31:55;7.20;86.30
47590;DHT22;33316;52.298;9.056;2023-02-01T11:34:26;7.30;86.40
47590;DHT22;33316;52.298;9.056;2023-02-01T11:36:58;7.30;86.30
47590;DHT22;33316;52.298;9.056;2023-02-01T11:39:29;7.30;86.20
47590;DHT22;33316;52.298;9.056;2023-02-01T11:42:03;7.30;86.20
47590;DHT22;33316;52.298;9.056;2023-02-01T11:44:33;7.30;86.90
47590;DHT22;33316;52.298;9.056;2023-02-01T11:47:22;7.30;86.10
47590;DHT22;33316;52.298;9.056;2023-02-01T11:49:52;7.30;86.10
47590;DHT22;33316;52.298;9.056;2023-02-01T11:52:39;7.30;86.10
47590;DHT22;33316;52.298;9.056;2023-02-01T11:55:17;7.30;86.20
47590;DHT22;33316;52.298;9.056;2023-02-01T11:57:56;7.40;86.30
47590;DHT22;33316;52.298;9.056;2023-02-01T12:00:46;7.40;86.30
47590;DHT22;33316;52.298;9.056;2023-02-01T12:03:48;7.40;86.10
47590;DHT22;33316;52.298;9.056;2023-02-01T12:06:25;7.40;86.20
47590;DHT22;33316;52.298;9.056;2023-02-01T12:09:09;7.40;86.50
47590;DHT22;33316;52.298;9.056;2023-02-01T12:11:46;7.40;87.00
47590;DHT22;33316;52.298;9.056;2023-02-01T12:14:26;7.30;87.30
47590;DHT22;33316;52.298;9.056;2023-02-01T12:20:07;7.30;88.10
47590;DHT22;33316;52.298;9.056;2023-02-01T12:22:44;7.30;88.40
47590;DHT22;33316;52.298;9.056;2023-02-01T12:25:33;7.30;88.70
47590;DHT22;33316;52.298;9.056;2023-02-01T12:31:21;7.30;89.20
47590;DHT22;33316;52.298;9.056;2023-02-01T12:34:01;7.20;89.20
47590;DHT22;33316;52.298;9.056;2023-02-01T12:36:39;7.20;89.20
47590;DHT22;33316;52.298;9.056;2023-02-01T12:39:15;7.20;89.30
47590;DHT22;33316;52.298;9.056;2023-02-01T12:41:55;7.20;89.40
47590;DHT22;33316;52.298;9.056;2023-02-01T12:44:32;7.20;89.60
47590;DHT22;33316;52.298;9.056;2023-02-01T12:47:04;7.20;89.70
47590;DHT22;33316;52.298;9.056;2023-02-01T12:49:41;7.20;89.70
47590;DHT22;33316;52.298;9.056;2023-02-01T12:52:14;7.20;89.70
47590;DHT22;33316;52.298;9.056;2023-02-01T12:54:46;7.10;89.60
47590;DHT22;33316;52.298;9.056;2023-02-01T12:57:17;7.10;89.70
47590;DHT22;33316;52.298;9.056;2023-02-01T12:59:51;7.10;89.90
47590;DHT22;33316;52.298;9.056;2023-02-01T13:02:25;7.10;90.00
47590;DHT22;33316;52.298;9.056;2023-02-01T13:04:59;7.10;90.10
47590;DHT22;33316;52.298;9.056;2023-02-01T13:07:31;7.00;90.10
47590;DHT22;33316;52.298;9.056;2023-02-01T13:10:11;7.00;90.20
47590;DHT22;33316;52.298;9.056;2023-02-01T13:12:43;7.00;90.30
47590;DHT22;33316;52.298;9.056;2023-02-01T13:15:14;7.00;90.30
47590;DHT22;33316;52.298;9.056;2023-02-01T13:17:44;7.00;90.50
47590;DHT22;33316;52.298;9.056;2023-02-01T13:20:19;7.00;90.50
47590;DHT22;33316;52.298;9.056;2023-02-01T13:22:51;7.00;90.60
47590;DHT22;33316;52.298;9.056;2023-02-01T13:25:28;7.00;90.60
47590;DHT22;33316;52.298;9.056;2023-02-01T13:28:00;6.90;90.70
47590;DHT22;33316;52.298;9.056;2023-02-01T13:30:34;6.90;90.70
47590;DHT22;33316;52.298;9.056;2023-02-01T13:33:23;6.90;90.80
47590;DHT22;33316;52.298;9.056;2023-02-01T13:36:14;6.80;91.00
47590;DHT22;33316;52.298;9.056;2023-02-01T13:42:02;6.90;91.10
47590;DHT22;33316;52.298;9.056;2023-02-01T13:44:30;6.80;91.10
47590;DHT22;33316;52.298;9.056;2023-02-01T13:47:00;6.80;91.40
47590;DHT22;33316;52.298;9.056;2023-02-01T13:49:30;6.80;91.20
47590;DHT22;33316;52.298;9.056;2023-02-01T13:51:59;6.80;91.20
47590;DHT22;33316;52.298;9.056;2023-02-01T13:54:29;6.70;91.00
47590;DHT22;33316;52.298;9.056;2023-02-01T13:57:02;6.50;90.50
47590;DHT22;33316;52.298;9.056;2023-02-01T13:59:49;6.20;90.00
47590;DHT22;33316;52.298;9.056;2023-02-01T14:02:47;6.00;90.00
47590;DHT22;33316;52.298;9.056;2023-02-01T14:08:22;5.70;89.70
47590;DHT22;33316;52.298;9.056;2023-02-01T14:10:52;5.60;89.40
47590;DHT22;33316;52.298;9.056;2023-02-01T14:13:27;5.50;89.60
47590;DHT22;33316;52.298;9.056;2023-02-01T14:16:13;5.30;89.60
47590;DHT22;33316;52.298;9.056;2023-02-01T14:18:58;5.30;89.80
47590;DHT22;33316;52.298;9.056;2023-02-01T14:21:28;5.30;89.80
47590;DHT22;33316;52.298;9.056;2023-02-01T14:23:58;5.20;90.00
47590;DHT22;33316;52.298;9.056;2023-02-01T14:26:27;5.20;90.00
47590;DHT22;33316;52.298;9.056;2023-02-01T14:29:22;5.20;90.00
47590;DHT22;33316;52.298;9.056;2023-02-01T14:32:00;5.10;90.00
47590;DHT22;33316;52.298;9.056;2023-02-01T14:34:37;5.10;90.10
47590;DHT22;33316;52.298;9.056;2023-02-01T14:37:10;5.10;90.10
47590;DHT22;33316;52.298;9.056;2023-02-01T14:39:49;5.10;90.20
47590;DHT22;33316;52.298;9.056;2023-02-01T14:42:24;5.10;90.20
47590;DHT22;33316;52.298;9.056;2023-02-01T14:44:54;5.10;90.20
47590;DHT22;33316;52.298;9.056;2023-02-01T14:47:32;5.10;90.20
47590;DHT22;33316;52.298;9.056;2023-02-01T14:50:23;5.10;90.30
47590;DHT22;33316;52.298;9.056;2023-02-01T14:53:02;5.00;90.40
47590;DHT22;33316;52.298;9.056;2023-02-01T14:55:34;5.10;90.50
47590;DHT22;33316;52.298;9.056;2023-02-01T14:58:05;5.00;90.50
47590;DHT22;33316;52.298;9.056;2023-02-01T15:00:34;5.00;90.60
47590;DHT22;33316;52.298;9.056;2023-02-01T15:03:21;5.00;90.80
47590;DHT22;33316;52.298;9.056;2023-02-01T15:05:54;5.00;90.70
47590;DHT22;33316;52.298;9.056;2023-02-01T15:08:24;5.10;90.80
47590;DHT22;33316;52.298;9.056;2023-02-01T15:10:52;5.00;90.70
47590;DHT22;33316;52.298;9.056;2023-02-01T15:13:21;5.10;90.80
47590;DHT22;33316;52.298;9.056;2023-02-01T15:16:04;5.10;90.90
47590;DHT22;33316;52.298;9.056;2023-02-01T15:18:32;5.10;90.90
47590;DHT22;33316;52.298;9.056;2023-02-01T15:21:01;5.10;90.90
47590;DHT22;33316;52.298;9.056;2023-02-01T15:23:28;5.10;90.90
47590;DHT22;33316;52.298;9.056;2023-02-01T15:25:55;5.10;91.00
47590;DHT22;33316;52.298;9.056;2023-02-01T15:28:22;5.10;91.10
47590;DHT22;33316;52.298;9.056;2023-02-01T15:30:55;5.10;91.20
47590;DHT22;33316;52.298;9.056;2023-02-01T15:33:25;5.20;91.40
47590;DHT22;33316;52.298;9.056;2023-02-01T15:35:53;5.20;91.50
47590;DHT22;33316;52.298;9.056;2023-02-01T15:38:38;5.20;91.50
47590;DHT22;33316;52.298;9.056;2023-02-01T15:41:11;5.30;91.60
47590;DHT22;33316;52.298;9.056;2023-02-01T15:43:41;5.30;91.60
47590;DHT22;33316;52.298;9.056;2023-02-01T15:46:12;5.30;91.60
47590;DHT22;33316;52.298;9.056;2023-02-01T15:48:45;5.40;91.60
47590;DHT22;33316;52.298;9.056;2023-02-01T15:51:15;5.40;91.50
47590;DHT22;33316;52.298;9.056;2023-02-01T15:53:48;5.40;91.10
47590;DHT22;33316;52.298;9.056;2023-02-01T15:56:22;5.40;90.90
47590;DHT22;33316;52.298;9.056;2023-02-01T15:58:53;5.40;90.70
47590;DHT22;33316;52.298;9.056;2023-02-01T16:01:20;5.50;90.60
47590;DHT22;33316;52.298;9.056;2023-02-01T16:03:49;5.50;90.50
47590;DHT22;33316;52.298;9.056;2023-02-01T16:06:28;5.50;90.50
47590;DHT22;33316;52.298;9.056;2023-02-01T16:09:00;5.50;90.50
47590;DHT22;33316;52.298;9.056;2023-02-01T16:11:29;5.50;90.40
47590;DHT22;33316;52.298;9.056;2023-02-01T16:13:57;5.50;90.40
47590;DHT22;33316;52.298;9.056;2023-02-01T16:16:24;5.50;90.40
47590;DHT22;33316;52.298;9.056;2023-02-01T16:18:52;5.50;90.40
47590;DHT22;33316;52.298;9.056;2023-02-01T16:21:19;5.50;90.50
47590;DHT22;33316;52.298;9.056;2023-02-01T16:23:49;5.50;90.50
47590;DHT22;33316;52.298;9.056;2023-02-01T16:26:17;5.50;90.50
47590;DHT22;33316;52.298;9.056;2023-02-01T16:28:43;5.50;90.60